Dallas, TX

6:19 AM CST on February 10, 2016 (GMT -0600)
Cement City | | Change Station
CLOSE
Current Station
Personal Weather Station
Location: Dallas, TX
Elevation: 469 ft
Nearby Weather Stations
Active Advisory: Flood Warning

Elev 469 ft 32.77 °N, 96.86 °W | Updated 10 seconds ago

Clear
Clear
39.4 °F
Feels Like 39 °F
N
1.0
Wind Variable Wind from SSW
Gusts 2.0 mph

Today
High -- | Low -- °F
--% Chance of Precip.
Yesterday
High -- | Low -- °F
Precip. -- in
Pressure 30.34 in
Visibility 10.0 miles
Clouds Clear
Windchill 39 °F
Dew Point 27 °F
Humidity 60%
Rainfall 0.00 in
Snow Depth Not available.
7:15 AM 6:08 PM
Waxing Crescent, 5% visible
METAR KDAL 101153Z 00000KT 10SM CLR 02/M02 A3033 RMK AO2 SLP272 T00221022 10072 20022 58001
Pressure 30.34 in
Visibility 10.0 miles
Clouds Clear
Windchill 39 °F
Dew Point 27 °F
Humidity 60%
Rainfall 0.00 in
Snow Depth Not available.
7:15 AM 6:08 PM
Waxing Crescent, 5% visible
METAR KDAL 101153Z 00000KT 10SM CLR 02/M02 A3033 RMK AO2 SLP272 T00221022 10072 20022 58001

10-Day Weather Forecast

Almanac

Astronomy

Feb. 10, 2016 Rise Set
Actual Time
Civil Twilight
Nautical Twilight
Astronomical Twilight
Moon
Length of Visible Light
Length of Day
Tomorrow will be .
, % of the Moon is Illuminated

Today's Extremes

State Highs State Lows

Community

WunderPhotos

Upload Photos

1,891,834 photos uploaded!

WunderBlog® & News

Nearby

Air Quality

  Air Quality AQ Index Pollutant
Not available.

Snow Depth

Station Depth Elevation

Earthquake Activity

City Distance Mag. Time & Date
Minimum magnitude displayed is 2.5.

Coastal Water Temperatures

Place Temperature

Stations

Nearby Weather Stations

Station Location Temp. Windchill Dew Point Humidity Wind Precip. Elev Updated Type
                   

Watches & Warnings

Flood Warning
Issued: 6:37 PM CST Feb. 9, 2016 – National Weather Service

The Flood Warning continues for
the Elm Fork Trinity River near Carrollton.
* At 0615 PM Tuesday the stage was 8.35 feet.
* Flood stage is 8 feet.
* Minor flooding is occurring and minor flooding is forecast.
* Forecast... the river will remain near 8.4 feet for the next few
days.


Lat... Lon 3300 9700 3287 9699 3287 9687 3300 9688